Архив погоды в Большом Шантаре

Метеограмма Большой Шантар
Среда, 15 Августа
Время местн. Темп Ветер Видим Явления Облачность нижн/средн/верх Атм. давл. Влжн Точка росы ВНГО R Сост. почвы Tg s
Напр Скр Прв ур.ст ур.м изм
07:00 +11.4° С,С-В 2 - более 50 км - облачно с прояснениями 766 767 +0.5 100% +11.4° 1.5 км 0 Сухая (без трещин) +9° -
04:00 +10.4° С,С-В 2 - 50 км - облачно с прояснениями 766 767 +0.5 100% +10.4° 1.5 км - - - -
01:00 +11.3° С-В 1 - более 50 км - преимущественно облачно 765 766 +0.3 100% +11.3° 1.5 км - - - -
Вторник, 14 Августа
Время местн. Темп Ветер Видим Явления Облачность нижн/средн/верх Атм. давл. Влжн Точка росы ВНГО R Сост. почвы Tg s
Напр Скр Прв ур.ст ур.м изм
22:00 +11.2° С,С-В 2 - 50 км - облачно с прояснениями 765 766 +1 100% +11.2° 1.5 км - - - -
19:00 +15.9° С,С-В 3 - более 50 км - облачно с прояснениями 764 765 +0.6 71% +10.6° 1 км 0 - - -
16:00 +17.7° С,С-В 5 - 50 км - облачно 763 764 +0.5 62% +10.3° 1 км - - - -
13:00 +17.2° С,С-В 5 - более 50 км - облачно 763 764 +0.6 62% +9.9° 1 км - - - -
10:00 +16.1° С,С-В 5 - 50 км - облачно 762 763 +0.5 73% +11.2° 1 км - - - -
07:00 +8.8° С 3 - более 50 км - облачно 762 763 +0.6 100% +8.8° 1.5 км 0 Сухая (без трещин) +6° -
04:00 +6.5° С,С-В 3 - более 50 км - переменная облачность 761 762 +0.3 100% +6.5° более 2.5 км - - - -
01:00 +6° С,С-В 2 - 50 км - переменная облачность 761 762 +0.6 100% +6° более 2.5 км - - - -
Понедельник, 13 Августа
Время местн. Темп Ветер Видим Явления Облачность нижн/средн/верх Атм. давл. Влжн Точка росы ВНГО R Сост. почвы Tg s
Напр Скр Прв ур.ст ур.м изм
22:00 +9.7° В 1 - более 50 км - облачно с прояснениями 760 761 +1 99% +9.5° более 2.5 км - - - -
19:00 +16.5° С-В 3 - 50 км - облачно с прояснениями 759 760 +0.5 62% +9.1° 1.5 км 0 - - -
16:00 +17.6° С,С-В 4 - 50 км - преимущественно облачно 759 760 +0.3 58% +9.2° 1.5 км - - - -
13:00 +17.2° С,С-В 4 - 50 км - преимущественно облачно 759 759 +0.2 59% +9° 1.5 км - - - -
10:00 +16.5° С 4 - более 50 км - облачно с прояснениями 758 759 +0.2 62% +9.3° 1.5 км - - - -
07:00 +12° С 1 - 50 км - преимущественно облачно 758 759 +0.3 98% +11.7° 1.5 км 0 Сухая (без трещин) - -
04:00 +11.4° С 2 - более 50 км - преимущественно облачно 758 759 0 100% +11.4° 1 км - - - -
01:00 +10.8° штиль 0 - 50 км - облачно с прояснениями 758 759 +0.4 100% +10.8° 1 км - - - -
Воскресенье, 12 Августа
Время местн. Темп Ветер Видим Явления Облачность нижн/средн/верх Атм. давл. Влжн Точка росы ВНГО R Сост. почвы Tg s
Напр Скр Прв ур.ст ур.м изм
22:00 +11.2° С-В 3 - более 50 км - облачно с прояснениями 757 758 +1.1 99% +11.1° 1 км - - - -
19:00 +15.5° С 4 - 50 км - переменная облачность 756 757 +0.5 68% +9.7° 1 км 0 - - -
16:00 +15.2° Ю 1 - более 50 км - преимущественно облачно 756 757 +0.1 74% +10.5° 1 км - - - -
13:00 +17.2° С 3 - более 50 км - преимущественно облачно 756 757 +0.2 62% +9.8° 1 км - - - -
10:00 +15.8° С 4 - 50 км - облачно 756 756 -0.1 68% +10° 1 км - - - -
07:00 +13° С,С-В 3 - 50 км - преимущественно облачно 756 756 +0.2 96% +12.4° 1 км 0 Влажная (без луж) - -
04:00 +12.3° С-В 2 - 50 км - облачно 755 756 0 97% +11.9° 1 км - - - -